sensor_id;sensor_type;location;lat;lon;timestamp;temperature;humidity
52275;DHT22;38228;50.940;4.024;2023-02-18T00:00:19;11.60;99.90
52275;DHT22;38228;50.940;4.024;2023-02-18T00:02:44;11.50;99.90
52275;DHT22;38228;50.940;4.024;2023-02-18T00:05:10;11.40;99.90
52275;DHT22;38228;50.940;4.024;2023-02-18T00:07:37;11.40;99.90
52275;DHT22;38228;50.940;4.024;2023-02-18T00:10:04;11.40;99.90
52275;DHT22;38228;50.940;4.024;2023-02-18T00:12:30;11.50;99.90
52275;DHT22;38228;50.940;4.024;2023-02-18T00:14:55;11.40;99.90
52275;DHT22;38228;50.940;4.024;2023-02-18T00:17:21;11.40;99.90
52275;DHT22;38228;50.940;4.024;2023-02-18T00:19:47;11.50;99.90
52275;DHT22;38228;50.940;4.024;2023-02-18T00:22:12;11.40;99.90
52275;DHT22;38228;50.940;4.024;2023-02-18T00:24:38;11.30;99.90
52275;DHT22;38228;50.940;4.024;2023-02-18T00:27:03;11.30;99.90
52275;DHT22;38228;50.940;4.024;2023-02-18T00:29:29;11.20;99.90
52275;DHT22;38228;50.940;4.024;2023-02-18T00:31:54;11.30;99.90
52275;DHT22;38228;50.940;4.024;2023-02-18T00:34:20;11.40;99.90
52275;DHT22;38228;50.940;4.024;2023-02-18T00:36:45;11.50;99.90
52275;DHT22;38228;50.940;4.024;2023-02-18T00:39:11;11.50;99.90
52275;DHT22;38228;50.940;4.024;2023-02-18T00:41:37;11.50;99.90
52275;DHT22;38228;50.940;4.024;2023-02-18T00:44:03;11.40;99.90
52275;DHT22;38228;50.940;4.024;2023-02-18T00:46:29;11.40;99.90
52275;DHT22;38228;50.940;4.024;2023-02-18T00:48:54;11.40;99.90
52275;DHT22;38228;50.940;4.024;2023-02-18T00:51:20;11.40;99.90
52275;DHT22;38228;50.940;4.024;2023-02-18T00:53:45;11.20;99.90
52275;DHT22;38228;50.940;4.024;2023-02-18T00:56:11;11.20;99.90
52275;DHT22;38228;50.940;4.024;2023-02-18T00:58:37;11.40;99.90
52275;DHT22;38228;50.940;4.024;2023-02-18T01:01:03;11.30;99.90
52275;DHT22;38228;50.940;4.024;2023-02-18T01:03:29;11.40;99.90
52275;DHT22;38228;50.940;4.024;2023-02-18T01:05:55;11.30;99.90
52275;DHT22;38228;50.940;4.024;2023-02-18T01:08:21;11.20;99.90
52275;DHT22;38228;50.940;4.024;2023-02-18T01:10:48;11.30;99.90
52275;DHT22;38228;50.940;4.024;2023-02-18T01:13:14;11.20;99.90
52275;DHT22;38228;50.940;4.024;2023-02-18T01:15:40;11.10;99.90
52275;DHT22;38228;50.940;4.024;2023-02-18T01:18:06;11.00;99.90
52275;DHT22;38228;50.940;4.024;2023-02-18T01:20:36;11.10;99.90
52275;DHT22;38228;50.940;4.024;2023-02-18T01:23:02;11.10;99.90
52275;DHT22;38228;50.940;4.024;2023-02-18T01:25:28;11.20;99.90
52275;DHT22;38228;50.940;4.024;2023-02-18T01:27:53;11.10;99.90
52275;DHT22;38228;50.940;4.024;2023-02-18T01:30:19;11.10;99.90
52275;DHT22;38228;50.940;4.024;2023-02-18T01:32:45;11.00;99.90
52275;DHT22;38228;50.940;4.024;2023-02-18T01:35:14;11.10;99.90
52275;DHT22;38228;50.940;4.024;2023-02-18T01:37:40;11.10;99.90
52275;DHT22;38228;50.940;4.024;2023-02-18T01:40:05;11.10;99.90
52275;DHT22;38228;50.940;4.024;2023-02-18T01:42:32;11.10;99.90
52275;DHT22;38228;50.940;4.024;2023-02-18T01:47:41;11.00;99.90
52275;DHT22;38228;50.940;4.024;2023-02-18T01:50:07;11.10;99.90
52275;DHT22;38228;50.940;4.024;2023-02-18T01:52:33;11.10;99.90
52275;DHT22;38228;50.940;4.024;2023-02-18T01:54:58;11.20;99.90
52275;DHT22;38228;50.940;4.024;2023-02-18T01:57:31;11.20;99.90
52275;DHT22;38228;50.940;4.024;2023-02-18T01:59:59;11.20;99.90
52275;DHT22;38228;50.940;4.024;2023-02-18T02:02:26;11.10;99.90
52275;DHT22;38228;50.940;4.024;2023-02-18T02:04:52;11.20;99.90
52275;DHT22;38228;50.940;4.024;2023-02-18T02:07:18;11.10;99.90
52275;DHT22;38228;50.940;4.024;2023-02-18T02:09:45;11.10;99.90
52275;DHT22;38228;50.940;4.024;2023-02-18T02:14:49;11.10;99.90
52275;DHT22;38228;50.940;4.024;2023-02-18T02:17:41;11.10;99.90
52275;DHT22;38228;50.940;4.024;2023-02-18T02:20:16;11.00;99.90
52275;DHT22;38228;50.940;4.024;2023-02-18T02:36:16;11.00;99.90
52275;DHT22;38228;50.940;4.024;2023-02-18T02:46:37;10.90;99.90
52275;DHT22;38228;50.940;4.024;2023-02-18T02:54:26;10.90;99.90
52275;DHT22;38228;50.940;4.024;2023-02-18T02:59:51;10.80;99.90
52275;DHT22;38228;50.940;4.024;2023-02-18T03:07:36;10.80;99.90
52275;DHT22;38228;50.940;4.024;2023-02-18T03:12:35;10.60;99.90
52275;DHT22;38228;50.940;4.024;2023-02-18T03:15:15;10.70;99.90
52275;DHT22;38228;50.940;4.024;2023-02-18T03:20:34;10.70;99.90
52275;DHT22;38228;50.940;4.024;2023-02-18T03:23:01;10.70;99.90
52275;DHT22;38228;50.940;4.024;2023-02-18T03:25:28;10.70;99.90
52275;DHT22;38228;50.940;4.024;2023-02-18T03:27:55;10.70;99.90
52275;DHT22;38228;50.940;4.024;2023-02-18T03:30:32;10.70;99.90
52275;DHT22;38228;50.940;4.024;2023-02-18T03:33:00;10.60;99.90
52275;DHT22;38228;50.940;4.024;2023-02-18T03:35:26;10.60;99.90
52275;DHT22;38228;50.940;4.024;2023-02-18T03:40:33;10.70;99.90
52275;DHT22;38228;50.940;4.024;2023-02-18T03:42:59;10.80;99.90
52275;DHT22;38228;50.940;4.024;2023-02-18T03:45:25;10.70;99.90
52275;DHT22;38228;50.940;4.024;2023-02-18T03:47:51;10.70;99.90
52275;DHT22;38228;50.940;4.024;2023-02-18T03:50:17;10.60;99.90
52275;DHT22;38228;50.940;4.024;2023-02-18T03:52:42;10.70;99.90
52275;DHT22;38228;50.940;4.024;2023-02-18T03:55:08;10.80;99.90
52275;DHT22;38228;50.940;4.024;2023-02-18T03:57:34;10.70;99.90
52275;DHT22;38228;50.940;4.024;2023-02-18T03:59:59;10.70;99.90
52275;DHT22;38228;50.940;4.024;2023-02-18T04:02:25;10.70;99.90
52275;DHT22;38228;50.940;4.024;2023-02-18T04:04:50;10.70;99.90
52275;DHT22;38228;50.940;4.024;2023-02-18T04:07:16;10.70;99.90
52275;DHT22;38228;50.940;4.024;2023-02-18T04:09:42;10.70;99.90
52275;DHT22;38228;50.940;4.024;2023-02-18T04:12:07;10.80;99.90
52275;DHT22;38228;50.940;4.024;2023-02-18T04:14:33;10.80;99.90
52275;DHT22;38228;50.940;4.024;2023-02-18T04:16:58;10.80;99.90
52275;DHT22;38228;50.940;4.024;2023-02-18T04:19:25;10.80;99.90
52275;DHT22;38228;50.940;4.024;2023-02-18T04:21:51;10.80;99.90
52275;DHT22;38228;50.940;4.024;2023-02-18T04:24:16;10.70;99.90
52275;DHT22;38228;50.940;4.024;2023-02-18T04:26:42;10.70;99.90
52275;DHT22;38228;50.940;4.024;2023-02-18T04:29:07;10.70;99.90
52275;DHT22;38228;50.940;4.024;2023-02-18T04:31:33;10.70;99.90
52275;DHT22;38228;50.940;4.024;2023-02-18T04:33:58;10.70;99.90
52275;DHT22;38228;50.940;4.024;2023-02-18T04:36:24;10.70;99.90
52275;DHT22;38228;50.940;4.024;2023-02-18T04:38:49;10.80;99.90
52275;DHT22;38228;50.940;4.024;2023-02-18T04:41:15;10.80;99.90
52275;DHT22;38228;50.940;4.024;2023-02-18T04:43:40;10.90;99.90
52275;DHT22;38228;50.940;4.024;2023-02-18T04:46:06;10.70;99.90
52275;DHT22;38228;50.940;4.024;2023-02-18T04:48:31;10.70;99.90
52275;DHT22;38228;50.940;4.024;2023-02-18T04:50:59;10.80;99.90
52275;DHT22;38228;50.940;4.024;2023-02-18T04:53:24;10.70;99.90
52275;DHT22;38228;50.940;4.024;2023-02-18T04:55:51;10.70;99.90
52275;DHT22;38228;50.940;4.024;2023-02-18T04:58:17;10.70;99.90
52275;DHT22;38228;50.940;4.024;2023-02-18T05:00:42;10.70;99.90
52275;DHT22;38228;50.940;4.024;2023-02-18T05:03:08;10.70;99.90
52275;DHT22;38228;50.940;4.024;2023-02-18T05:05:33;10.70;99.90
52275;DHT22;38228;50.940;4.024;2023-02-18T05:08:00;10.70;99.90
52275;DHT22;38228;50.940;4.024;2023-02-18T05:10:25;10.60;99.90
52275;DHT22;38228;50.940;4.024;2023-02-18T05:12:51;10.60;99.90
52275;DHT22;38228;50.940;4.024;2023-02-18T05:15:17;10.60;99.90
52275;DHT22;38228;50.940;4.024;2023-02-18T05:17:42;10.60;99.90
52275;DHT22;38228;50.940;4.024;2023-02-18T05:20:08;10.60;99.90
52275;DHT22;38228;50.940;4.024;2023-02-18T05:22:33;10.50;99.90
52275;DHT22;38228;50.940;4.024;2023-02-18T05:24:59;10.50;99.90
52275;DHT22;38228;50.940;4.024;2023-02-18T05:27:25;10.60;99.90
52275;DHT22;38228;50.940;4.024;2023-02-18T05:29:50;10.60;99.90
52275;DHT22;38228;50.940;4.024;2023-02-18T05:32:16;10.60;99.90
52275;DHT22;38228;50.940;4.024;2023-02-18T05:34:41;10.70;99.90
52275;DHT22;38228;50.940;4.024;2023-02-18T05:37:07;10.60;99.90
52275;DHT22;38228;50.940;4.024;2023-02-18T05:39:32;10.60;99.90
52275;DHT22;38228;50.940;4.024;2023-02-18T05:41:58;10.60;99.90
52275;DHT22;38228;50.940;4.024;2023-02-18T05:44:23;10.70;99.90
52275;DHT22;38228;50.940;4.024;2023-02-18T05:46:58;10.70;99.90
52275;DHT22;38228;50.940;4.024;2023-02-18T05:49:24;10.60;99.90
52275;DHT22;38228;50.940;4.024;2023-02-18T05:51:49;10.60;99.90
52275;DHT22;38228;50.940;4.024;2023-02-18T05:54:15;10.50;99.90
52275;DHT22;38228;50.940;4.024;2023-02-18T05:56:40;10.50;99.90
52275;DHT22;38228;50.940;4.024;2023-02-18T05:59:06;10.50;99.90
52275;DHT22;38228;50.940;4.024;2023-02-18T06:01:32;10.50;99.90
52275;DHT22;38228;50.940;4.024;2023-02-18T06:03:57;10.50;99.90
52275;DHT22;38228;50.940;4.024;2023-02-18T06:06:23;10.60;99.90
52275;DHT22;38228;50.940;4.024;2023-02-18T06:08:48;10.60;99.90
52275;DHT22;38228;50.940;4.024;2023-02-18T06:11:14;10.50;99.90
52275;DHT22;38228;50.940;4.024;2023-02-18T06:13:39;10.60;99.90
52275;DHT22;38228;50.940;4.024;2023-02-18T06:16:05;10.60;99.90
52275;DHT22;38228;50.940;4.024;2023-02-18T06:18:31;10.70;99.90
52275;DHT22;38228;50.940;4.024;2023-02-18T06:20:56;10.60;99.90
52275;DHT22;38228;50.940;4.024;2023-02-18T06:23:22;10.60;99.90
52275;DHT22;38228;50.940;4.024;2023-02-18T06:25:48;10.70;99.90
52275;DHT22;38228;50.940;4.024;2023-02-18T06:28:14;10.70;99.90
52275;DHT22;38228;50.940;4.024;2023-02-18T06:30:40;10.60;99.90
52275;DHT22;38228;50.940;4.024;2023-02-18T06:33:05;10.50;99.90
52275;DHT22;38228;50.940;4.024;2023-02-18T06:35:31;10.40;99.90
52275;DHT22;38228;50.940;4.024;2023-02-18T06:37:57;10.50;99.90
52275;DHT22;38228;50.940;4.024;2023-02-18T06:40:22;10.50;99.90
52275;DHT22;38228;50.940;4.024;2023-02-18T06:42:48;10.50;99.90
52275;DHT22;38228;50.940;4.024;2023-02-18T06:45:13;10.50;99.90
52275;DHT22;38228;50.940;4.024;2023-02-18T06:47:39;10.40;99.90
52275;DHT22;38228;50.940;4.024;2023-02-18T06:50:05;10.50;99.90
52275;DHT22;38228;50.940;4.024;2023-02-18T06:52:30;10.60;99.90
52275;DHT22;38228;50.940;4.024;2023-02-18T06:54:57;10.60;99.90
52275;DHT22;38228;50.940;4.024;2023-02-18T06:57:23;10.60;99.90
52275;DHT22;38228;50.940;4.024;2023-02-18T06:59:48;10.60;99.90
52275;DHT22;38228;50.940;4.024;2023-02-18T07:02:14;10.50;99.90
52275;DHT22;38228;50.940;4.024;2023-02-18T07:04:40;10.50;99.90
52275;DHT22;38228;50.940;4.024;2023-02-18T07:07:05;10.50;99.90
52275;DHT22;38228;50.940;4.024;2023-02-18T07:09:34;10.50;99.90
52275;DHT22;38228;50.940;4.024;2023-02-18T07:11:59;10.60;99.90
52275;DHT22;38228;50.940;4.024;2023-02-18T07:14:25;10.60;99.90
52275;DHT22;38228;50.940;4.024;2023-02-18T07:16:52;10.70;99.90
52275;DHT22;38228;50.940;4.024;2023-02-18T07:19:17;10.60;99.90
52275;DHT22;38228;50.940;4.024;2023-02-18T07:21:43;10.50;99.90
52275;DHT22;38228;50.940;4.024;2023-02-18T07:24:09;10.60;99.90
52275;DHT22;38228;50.940;4.024;2023-02-18T07:26:34;10.60;99.90
52275;DHT22;38228;50.940;4.024;2023-02-18T07:29:00;10.80;99.90
52275;DHT22;38228;50.940;4.024;2023-02-18T07:31:26;10.80;99.90
52275;DHT22;38228;50.940;4.024;2023-02-18T07:33:51;10.70;99.90
52275;DHT22;38228;50.940;4.024;2023-02-18T07:36:17;10.70;99.90
52275;DHT22;38228;50.940;4.024;2023-02-18T07:38:42;10.70;99.90
52275;DHT22;38228;50.940;4.024;2023-02-18T07:41:16;10.70;99.90
52275;DHT22;38228;50.940;4.024;2023-02-18T07:43:42;10.70;99.90
52275;DHT22;38228;50.940;4.024;2023-02-18T07:46:07;10.70;99.90
52275;DHT22;38228;50.940;4.024;2023-02-18T07:48:33;10.80;99.90
52275;DHT22;38228;50.940;4.024;2023-02-18T07:50:59;10.90;99.90
52275;DHT22;38228;50.940;4.024;2023-02-18T07:53:25;10.80;99.90
52275;DHT22;38228;50.940;4.024;2023-02-18T07:55:50;10.80;99.90
52275;DHT22;38228;50.940;4.024;2023-02-18T07:58:20;10.80;99.90
52275;DHT22;38228;50.940;4.024;2023-02-18T08:00:46;10.70;99.90
52275;DHT22;38228;50.940;4.024;2023-02-18T08:03:14;10.70;99.90
52275;DHT22;38228;50.940;4.024;2023-02-18T08:05:40;10.80;99.90
52275;DHT22;38228;50.940;4.024;2023-02-18T08:08:06;10.80;99.90
52275;DHT22;38228;50.940;4.024;2023-02-18T08:10:32;10.90;99.90
52275;DHT22;38228;50.940;4.024;2023-02-18T08:12:57;10.90;99.90
52275;DHT22;38228;50.940;4.024;2023-02-18T08:15:23;10.80;99.90
52275;DHT22;38228;50.940;4.024;2023-02-18T08:17:48;10.80;99.90
52275;DHT22;38228;50.940;4.024;2023-02-18T08:20:14;10.80;99.90
52275;DHT22;38228;50.940;4.024;2023-02-18T08:22:39;10.90;99.90
52275;DHT22;38228;50.940;4.024;2023-02-18T08:25:05;10.80;99.90
52275;DHT22;38228;50.940;4.024;2023-02-18T08:27:31;10.90;99.90
52275;DHT22;38228;50.940;4.024;2023-02-18T08:29:57;11.00;99.90
52275;DHT22;38228;50.940;4.024;2023-02-18T08:32:25;11.10;99.90
52275;DHT22;38228;50.940;4.024;2023-02-18T08:34:50;11.00;99.90
52275;DHT22;38228;50.940;4.024;2023-02-18T08:37:16;11.00;99.90
52275;DHT22;38228;50.940;4.024;2023-02-18T08:39:42;11.10;99.90
52275;DHT22;38228;50.940;4.024;2023-02-18T08:42:07;11.10;99.90
52275;DHT22;38228;50.940;4.024;2023-02-18T08:44:33;11.10;99.90
52275;DHT22;38228;50.940;4.024;2023-02-18T08:46:58;11.10;99.90
52275;DHT22;38228;50.940;4.024;2023-02-18T08:49:24;11.10;99.90
52275;DHT22;38228;50.940;4.024;2023-02-18T08:51:49;11.20;99.90
52275;DHT22;38228;50.940;4.024;2023-02-18T08:54:15;11.30;99.90
52275;DHT22;38228;50.940;4.024;2023-02-18T08:56:41;11.30;99.90
52275;DHT22;38228;50.940;4.024;2023-02-18T08:59:07;11.40;99.90
52275;DHT22;38228;50.940;4.024;2023-02-18T09:01:32;11.50;99.90
52275;DHT22;38228;50.940;4.024;2023-02-18T09:03:58;11.50;99.90
52275;DHT22;38228;50.940;4.024;2023-02-18T09:06:23;11.50;99.90
52275;DHT22;38228;50.940;4.024;2023-02-18T09:08:49;11.30;99.90
52275;DHT22;38228;50.940;4.024;2023-02-18T09:11:15;11.30;99.90
52275;DHT22;38228;50.940;4.024;2023-02-18T09:13:41;11.30;99.90
52275;DHT22;38228;50.940;4.024;2023-02-18T09:16:09;11.30;99.90
52275;DHT22;38228;50.940;4.024;2023-02-18T09:18:35;11.40;99.90
52275;DHT22;38228;50.940;4.024;2023-02-18T09:21:00;11.20;99.90
52275;DHT22;38228;50.940;4.024;2023-02-18T09:23:27;11.30;99.90
52275;DHT22;38228;50.940;4.024;2023-02-18T09:25:53;11.50;99.90
52275;DHT22;38228;50.940;4.024;2023-02-18T09:28:18;11.40;99.90
52275;DHT22;38228;50.940;4.024;2023-02-18T09:30:44;11.40;99.90
52275;DHT22;38228;50.940;4.024;2023-02-18T09:33:10;11.60;99.90
52275;DHT22;38228;50.940;4.024;2023-02-18T09:35:41;11.60;99.90
52275;DHT22;38228;50.940;4.024;2023-02-18T09:38:10;11.70;99.90
52275;DHT22;38228;50.940;4.024;2023-02-18T09:40:36;11.70;99.90
52275;DHT22;38228;50.940;4.024;2023-02-18T09:43:03;11.80;99.90
52275;DHT22;38228;50.940;4.024;2023-02-18T09:45:29;11.70;99.90
52275;DHT22;38228;50.940;4.024;2023-02-18T09:47:55;11.70;99.90
52275;DHT22;38228;50.940;4.024;2023-02-18T09:50:21;11.70;99.90
52275;DHT22;38228;50.940;4.024;2023-02-18T09:52:47;11.70;99.90
52275;DHT22;38228;50.940;4.024;2023-02-18T09:55:18;11.80;99.90
52275;DHT22;38228;50.940;4.024;2023-02-18T09:57:45;11.80;99.90
52275;DHT22;38228;50.940;4.024;2023-02-18T10:00:16;11.90;99.90
52275;DHT22;38228;50.940;4.024;2023-02-18T10:02:53;11.90;99.90
52275;DHT22;38228;50.940;4.024;2023-02-18T10:05:19;11.80;99.90
52275;DHT22;38228;50.940;4.024;2023-02-18T10:07:45;11.70;99.90
52275;DHT22;38228;50.940;4.024;2023-02-18T10:10:21;12.00;99.90
52275;DHT22;38228;50.940;4.024;2023-02-18T10:12:51;11.90;99.90
52275;DHT22;38228;50.940;4.024;2023-02-18T10:15:22;12.10;99.90
52275;DHT22;38228;50.940;4.024;2023-02-18T10:17:48;12.00;99.90
52275;DHT22;38228;50.940;4.024;2023-02-18T10:20:16;11.90;99.90
52275;DHT22;38228;50.940;4.024;2023-02-18T10:22:44;11.90;99.90
52275;DHT22;38228;50.940;4.024;2023-02-18T10:25:11;12.00;99.90
52275;DHT22;38228;50.940;4.024;2023-02-18T10:27:41;11.90;99.90
52275;DHT22;38228;50.940;4.024;2023-02-18T10:32:54;11.90;99.90
52275;DHT22;38228;50.940;4.024;2023-02-18T10:35:27;12.00;99.90
52275;DHT22;38228;50.940;4.024;2023-02-18T10:40:54;11.90;99.90
52275;DHT22;38228;50.940;4.024;2023-02-18T10:46:05;12.00;99.90
52275;DHT22;38228;50.940;4.024;2023-02-18T10:50:57;11.90;99.90
52275;DHT22;38228;50.940;4.024;2023-02-18T10:53:34;11.90;99.90
52275;DHT22;38228;50.940;4.024;2023-02-18T10:56:00;11.90;99.90
52275;DHT22;38228;50.940;4.024;2023-02-18T11:00:58;12.00;99.90
52275;DHT22;38228;50.940;4.024;2023-02-18T11:03:26;12.00;99.90
52275;DHT22;38228;50.940;4.024;2023-02-18T11:06:02;12.00;99.90
52275;DHT22;38228;50.940;4.024;2023-02-18T11:08:29;12.00;99.90
52275;DHT22;38228;50.940;4.024;2023-02-18T11:11:14;12.10;99.90
52275;DHT22;38228;50.940;4.024;2023-02-18T11:13:41;12.00;99.90
52275;DHT22;38228;50.940;4.024;2023-02-18T11:16:08;12.10;99.90
52275;DHT22;38228;50.940;4.024;2023-02-18T11:18:37;12.10;99.90
52275;DHT22;38228;50.940;4.024;2023-02-18T11:21:28;12.30;99.90
52275;DHT22;38228;50.940;4.024;2023-02-18T11:23:52;12.40;99.90
52275;DHT22;38228;50.940;4.024;2023-02-18T11:26:31;12.30;99.90
52275;DHT22;38228;50.940;4.024;2023-02-18T11:29:09;12.30;99.90
52275;DHT22;38228;50.940;4.024;2023-02-18T11:31:40;12.30;99.90
52275;DHT22;38228;50.940;4.024;2023-02-18T11:34:09;12.40;99.90
52275;DHT22;38228;50.940;4.024;2023-02-18T11:36:36;12.30;99.90
52275;DHT22;38228;50.940;4.024;2023-02-18T11:39:12;12.30;99.90
52275;DHT22;38228;50.940;4.024;2023-02-18T11:41:43;12.30;99.90
52275;DHT22;38228;50.940;4.024;2023-02-18T11:44:17;12.50;99.90
52275;DHT22;38228;50.940;4.024;2023-02-18T11:46:55;12.60;99.90
52275;DHT22;38228;50.940;4.024;2023-02-18T11:49:21;12.60;99.90
52275;DHT22;38228;50.940;4.024;2023-02-18T11:51:48;12.70;99.90
52275;DHT22;38228;50.940;4.024;2023-02-18T11:54:22;12.60;99.90
52275;DHT22;38228;50.940;4.024;2023-02-18T11:56:57;12.50;99.90
52275;DHT22;38228;50.940;4.024;2023-02-18T11:59:23;12.70;99.90
52275;DHT22;38228;50.940;4.024;2023-02-18T12:01:53;12.60;99.90
52275;DHT22;38228;50.940;4.024;2023-02-18T12:04:26;12.70;99.90
52275;DHT22;38228;50.940;4.024;2023-02-18T12:06:55;12.80;99.90
52275;DHT22;38228;50.940;4.024;2023-02-18T12:09:30;12.90;99.90
52275;DHT22;38228;50.940;4.024;2023-02-18T12:12:00;12.90;99.90
52275;DHT22;38228;50.940;4.024;2023-02-18T12:14:27;12.90;99.90
52275;DHT22;38228;50.940;4.024;2023-02-18T12:27:35;12.50;99.90
52275;DHT22;38228;50.940;4.024;2023-02-18T12:32:47;12.60;99.90
52275;DHT22;38228;50.940;4.024;2023-02-18T12:46:00;12.30;99.90
52275;DHT22;38228;50.940;4.024;2023-02-18T12:48:39;12.30;99.90
52275;DHT22;38228;50.940;4.024;2023-02-18T12:57:12;12.10;99.90
52275;DHT22;38228;50.940;4.024;2023-02-18T13:12:29;11.90;99.90
52275;DHT22;38228;50.940;4.024;2023-02-18T13:17:42;11.70;99.90
52275;DHT22;38228;50.940;4.024;2023-02-18T13:20:19;11.70;99.90
52275;DHT22;38228;50.940;4.024;2023-02-18T13:22:46;11.60;99.90
52275;DHT22;38228;50.940;4.024;2023-02-18T13:25:14;11.70;99.90
52275;DHT22;38228;50.940;4.024;2023-02-18T13:35:17;11.60;99.90
52275;DHT22;38228;50.940;4.024;2023-02-18T13:37:59;11.70;99.90
52275;DHT22;38228;50.940;4.024;2023-02-18T13:40:28;11.80;99.90
52275;DHT22;38228;50.940;4.024;2023-02-18T13:43:15;11.80;99.90
52275;DHT22;38228;50.940;4.024;2023-02-18T13:45:40;11.70;99.90
52275;DHT22;38228;50.940;4.024;2023-02-18T13:48:20;11.60;99.90
52275;DHT22;38228;50.940;4.024;2023-02-18T13:50:46;11.80;99.90
52275;DHT22;38228;50.940;4.024;2023-02-18T13:53:13;11.80;99.90
52275;DHT22;38228;50.940;4.024;2023-02-18T14:00:53;12.00;99.90
52275;DHT22;38228;50.940;4.024;2023-02-18T14:05:54;11.90;99.90
52275;DHT22;38228;50.940;4.024;2023-02-18T14:08:31;11.80;99.90
52275;DHT22;38228;50.940;4.024;2023-02-18T14:13:40;11.90;99.90
52275;DHT22;38228;50.940;4.024;2023-02-18T14:16:06;11.90;99.90
52275;DHT22;38228;50.940;4.024;2023-02-18T14:21:49;12.00;99.90
52275;DHT22;38228;50.940;4.024;2023-02-18T14:26:20;12.00;99.90
52275;DHT22;38228;50.940;4.024;2023-02-18T14:31:19;11.90;99.90
52275;DHT22;38228;50.940;4.024;2023-02-18T14:39:21;11.80;99.90
52275;DHT22;38228;50.940;4.024;2023-02-18T14:51:37;11.80;99.90
52275;DHT22;38228;50.940;4.024;2023-02-18T14:54:10;11.80;99.90
52275;DHT22;38228;50.940;4.024;2023-02-18T14:56:37;11.80;99.90
52275;DHT22;38228;50.940;4.024;2023-02-18T14:59:05;11.80;99.90
52275;DHT22;38228;50.940;4.024;2023-02-18T15:01:32;11.80;99.90
52275;DHT22;38228;50.940;4.024;2023-02-18T15:03:57;11.80;99.90
52275;DHT22;38228;50.940;4.024;2023-02-18T15:06:28;11.80;99.90
52275;DHT22;38228;50.940;4.024;2023-02-18T15:08:57;11.80;99.90
52275;DHT22;38228;50.940;4.024;2023-02-18T15:11:24;11.80;99.90
52275;DHT22;38228;50.940;4.024;2023-02-18T15:13:51;11.80;99.90
52275;DHT22;38228;50.940;4.024;2023-02-18T15:16:25;11.80;99.90
52275;DHT22;38228;50.940;4.024;2023-02-18T15:19:04;11.70;99.90
52275;DHT22;38228;50.940;4.024;2023-02-18T15:21:31;11.90;99.90
52275;DHT22;38228;50.940;4.024;2023-02-18T15:26:41;12.00;99.90
52275;DHT22;38228;50.940;4.024;2023-02-18T15:29:11;12.00;99.90
52275;DHT22;38228;50.940;4.024;2023-02-18T15:31:39;11.90;99.90
52275;DHT22;38228;50.940;4.024;2023-02-18T15:34:16;11.80;99.90
52275;DHT22;38228;50.940;4.024;2023-02-18T15:36:49;11.90;99.90
52275;DHT22;38228;50.940;4.024;2023-02-18T15:39:14;11.90;99.90
52275;DHT22;38228;50.940;4.024;2023-02-18T15:41:40;11.80;99.90
52275;DHT22;38228;50.940;4.024;2023-02-18T15:44:06;11.90;99.90
52275;DHT22;38228;50.940;4.024;2023-02-18T15:46:32;11.90;99.90
52275;DHT22;38228;50.940;4.024;2023-02-18T15:48:58;11.90;99.90
52275;DHT22;38228;50.940;4.024;2023-02-18T15:51:28;11.90;99.90
52275;DHT22;38228;50.940;4.024;2023-02-18T15:53:58;11.90;99.90
52275;DHT22;38228;50.940;4.024;2023-02-18T15:59:16;12.00;99.90
52275;DHT22;38228;50.940;4.024;2023-02-18T16:01:42;11.90;99.90
52275;DHT22;38228;50.940;4.024;2023-02-18T16:04:12;11.90;99.90
52275;DHT22;38228;50.940;4.024;2023-02-18T16:06:38;11.90;99.90
52275;DHT22;38228;50.940;4.024;2023-02-18T16:09:13;11.90;99.90
52275;DHT22;38228;50.940;4.024;2023-02-18T16:11:44;11.90;99.90
52275;DHT22;38228;50.940;4.024;2023-02-18T16:17:13;11.90;99.90
52275;DHT22;38228;50.940;4.024;2023-02-18T16:20:01;11.70;99.90
52275;DHT22;38228;50.940;4.024;2023-02-18T16:24:57;11.70;99.90
52275;DHT22;38228;50.940;4.024;2023-02-18T16:27:27;11.70;99.90
52275;DHT22;38228;50.940;4.024;2023-02-18T16:29:55;11.80;99.90
52275;DHT22;38228;50.940;4.024;2023-02-18T16:32:23;11.70;99.90
52275;DHT22;38228;50.940;4.024;2023-02-18T16:34:49;11.70;99.90
52275;DHT22;38228;50.940;4.024;2023-02-18T16:37:14;11.70;99.90
52275;DHT22;38228;50.940;4.024;2023-02-18T16:39:58;11.70;99.90
52275;DHT22;38228;50.940;4.024;2023-02-18T16:42:24;11.70;99.90
52275;DHT22;38228;50.940;4.024;2023-02-18T16:44:49;11.70;99.90
52275;DHT22;38228;50.940;4.024;2023-02-18T16:47:16;11.70;99.90
52275;DHT22;38228;50.940;4.024;2023-02-18T16:49:46;11.70;99.90
52275;DHT22;38228;50.940;4.024;2023-02-18T16:52:12;11.70;99.90
52275;DHT22;38228;50.940;4.024;2023-02-18T16:54:39;11.70;99.90
52275;DHT22;38228;50.940;4.024;2023-02-18T16:57:05;11.60;99.90
52275;DHT22;38228;50.940;4.024;2023-02-18T16:59:31;11.60;99.90
52275;DHT22;38228;50.940;4.024;2023-02-18T17:01:56;11.60;99.90
52275;DHT22;38228;50.940;4.024;2023-02-18T17:04:22;11.60;99.90
52275;DHT22;38228;50.940;4.024;2023-02-18T17:06:47;11.50;99.90
52275;DHT22;38228;50.940;4.024;2023-02-18T17:09:17;11.50;99.90
52275;DHT22;38228;50.940;4.024;2023-02-18T17:11:45;11.60;99.90
52275;DHT22;38228;50.940;4.024;2023-02-18T17:14:17;11.60;99.90
52275;DHT22;38228;50.940;4.024;2023-02-18T17:16:43;11.50;99.90
52275;DHT22;38228;50.940;4.024;2023-02-18T17:19:09;11.60;99.90
52275;DHT22;38228;50.940;4.024;2023-02-18T17:21:35;11.50;99.90
52275;DHT22;38228;50.940;4.024;2023-02-18T17:24:00;11.60;99.90
52275;DHT22;38228;50.940;4.024;2023-02-18T17:26:27;11.60;99.90
52275;DHT22;38228;50.940;4.024;2023-02-18T17:28:53;11.40;99.90
52275;DHT22;38228;50.940;4.024;2023-02-18T17:31:22;11.40;99.90
52275;DHT22;38228;50.940;4.024;2023-02-18T17:33:50;11.40;99.90
52275;DHT22;38228;50.940;4.024;2023-02-18T17:36:16;11.40;99.90
52275;DHT22;38228;50.940;4.024;2023-02-18T17:38:42;11.50;99.90
52275;DHT22;38228;50.940;4.024;2023-02-18T17:41:08;11.50;99.90
52275;DHT22;38228;50.940;4.024;2023-02-18T17:43:34;11.60;99.90
52275;DHT22;38228;50.940;4.024;2023-02-18T17:46:01;11.60;99.90
52275;DHT22;38228;50.940;4.024;2023-02-18T17:48:26;11.50;99.90
52275;DHT22;38228;50.940;4.024;2023-02-18T17:50:52;11.60;99.90
52275;DHT22;38228;50.940;4.024;2023-02-18T17:53:18;11.50;99.90
52275;DHT22;38228;50.940;4.024;2023-02-18T17:55:44;11.40;99.90
52275;DHT22;38228;50.940;4.024;2023-02-18T17:58:10;11.50;99.90
52275;DHT22;38228;50.940;4.024;2023-02-18T18:00:37;11.40;99.90
52275;DHT22;38228;50.940;4.024;2023-02-18T18:03:04;11.40;99.90
52275;DHT22;38228;50.940;4.024;2023-02-18T18:05:30;11.50;99.90
52275;DHT22;38228;50.940;4.024;2023-02-18T18:07:57;11.50;99.90
52275;DHT22;38228;50.940;4.024;2023-02-18T18:10:24;11.50;99.90